Terminal Aerodrome Forecast
Issued by NWS

Home | Current Version | Previous Version | Text Only | Print | Product List | Glossary On
Versions: 1 2 3 4 5 6 7 8 9 10 11 12 13 14 15 16 17 18 19 20 21 22 23 24
000
FTUS43 KDVN 011700 RRA
TAFBRL
TAF
KBRL 011744Z 0118/0218 13008KT P6SM -RA SCT040 BKN080
     FM012200 14007KT P6SM OVC040
     FM020500 15005KT 3SM BR OVC025
     FM021500 19011KT P6SM BKN040=

USA.gov is the U.S. government's official web portal to all federal, state and local government web resources and services.